Time;durP1;ratioP1;P1;durP2;ratioP2;P2;SDS_P1;SDS_P2;PMS_P1;PMS_P2;Temp;Humidity;BMP_temperature;BMP_pressure;BME280_temperature;BME280_humidity;BME280_pressure;Samples;Min_cycle;Max_cycle;Signal;HPM_P1;HPM_P2
2024/02/28 00:00:00;;;;;;;68.70;25.42;;;;;;;-0.41;100.00;101726.13;5003729;28;20034;-70
2024/02/28 00:02:25;;;;;;;66.35;24.83;;;;;;;-0.45;100.00;101724.59;5023686;28;20034;-72
2024/02/28 00:04:51;;;;;;;67.05;25.75;;;;;;;-0.46;100.00;101733.09;4993137;28;20038;-70
2024/02/28 00:07:18;;;;;;;65.45;24.85;;;;;;;-0.46;100.00;101716.09;5011446;28;20042;-70
2024/02/28 00:09:44;;;;;;;64.18;25.33;;;;;;;-0.47;100.00;101722.09;5009186;28;20045;-70
2024/02/28 00:12:09;;;;;;;66.65;26.10;;;;;;;-0.47;100.00;101723.78;5010095;28;20033;-70
2024/02/28 00:14:35;;;;;;;63.47;25.98;;;;;;;-0.51;100.00;101709.53;4993514;28;20044;-71
2024/02/28 00:17:00;;;;;;;63.65;26.33;;;;;;;-0.53;100.00;101708.75;5008440;28;20060;-70
2024/02/28 00:19:26;;;;;;;68.20;25.33;;;;;;;-0.54;100.00;101712.22;5007205;28;20030;-72
2024/02/28 00:21:51;;;;;;;71.35;27.00;;;;;;;-0.57;100.00;101704.69;4993073;28;20042;-72
2024/02/28 00:24:17;;;;;;;70.68;26.92;;;;;;;-0.60;100.00;101708.19;5009293;28;20038;-70
2024/02/28 00:26:43;;;;;;;65.90;24.17;;;;;;;-0.63;100.00;101703.22;4987821;28;20084;-70
2024/02/28 00:29:11;;;;;;;69.03;26.08;;;;;;;-0.66;100.00;101706.72;4991586;28;20122;-72
2024/02/28 00:31:37;;;;;;;64.00;25.27;;;;;;;-0.67;100.00;101712.69;5011741;28;20084;-72
2024/02/28 00:34:02;;;;;;;66.45;25.33;;;;;;;-0.70;100.00;101720.44;4994575;28;20042;-72
2024/02/28 00:36:28;;;;;;;71.05;26.23;;;;;;;-0.73;100.00;101715.50;4992869;28;20034;-70
2024/02/28 00:38:53;;;;;;;70.15;25.13;;;;;;;-0.74;100.00;101713.81;5013307;28;20451;-72
2024/02/28 00:41:18;;;;;;;64.60;25.00;;;;;;;-0.76;100.00;101709.69;5009525;28;20033;-72
2024/02/28 00:43:44;;;;;;;65.40;25.38;;;;;;;-0.76;100.00;101709.69;5009590;28;20041;-73
2024/02/28 00:46:11;;;;;;;68.45;26.80;;;;;;;-0.77;100.00;101713.09;4994528;28;20114;-72
2024/02/28 00:48:38;;;;;;;66.20;25.55;;;;;;;-0.82;100.00;101718.41;4990629;28;20089;-72
2024/02/28 00:51:03;;;;;;;65.03;24.88;;;;;;;-0.85;100.00;101718.50;4990234;28;20033;-72
2024/02/28 00:53:29;;;;;;;66.13;24.70;;;;;;;-0.89;100.00;101720.34;4992773;28;20018;-73
2024/02/28 00:55:55;;;;;;;62.17;24.30;;;;;;;-0.89;100.00;101722.06;5010241;28;20452;-72
2024/02/28 00:58:20;;;;;;;71.18;24.00;;;;;;;-0.91;100.00;101719.56;5005700;28;20038;-72
2024/02/28 01:00:47;;;;;;;73.63;28.10;;;;;;;-0.91;100.00;101726.38;4989625;28;20050;-72
2024/02/28 01:03:15;;;;;;;70.75;27.02;;;;;;;-0.91;100.00;101734.03;5009310;28;20037;-72
2024/02/28 01:05:41;;;;;;;71.22;26.00;;;;;;;-0.93;100.00;101728.16;5011653;28;20038;-72
2024/02/28 01:08:07;;;;;;;74.28;27.23;;;;;;;-0.93;100.00;101715.44;5013366;28;20036;-72
2024/02/28 01:10:34;;;;;;;68.13;27.95;;;;;;;-0.95;100.00;101727.41;5009018;28;20041;-72
2024/02/28 01:12:59;;;;;;;80.45;29.58;;;;;;;-0.98;100.00;101734.28;4994393;28;20432;-72
2024/02/28 01:15:25;;;;;;;76.88;28.98;;;;;;;-1.00;100.00;101728.41;5009982;28;20049;-72
2024/02/28 01:17:50;;;;;;;84.80;30.60;;;;;;;-1.01;100.00;101731.00;5014054;28;20026;-72
2024/02/28 01:20:15;;;;;;;87.07;32.92;;;;;;;-1.05;100.00;101732.03;5010096;28;20034;-72
2024/02/28 01:22:41;;;;;;;86.63;33.15;;;;;;;-1.08;100.00;101727.84;4996196;28;20484;-72
2024/02/28 01:25:07;;;;;;;91.75;34.70;;;;;;;-1.08;100.00;101732.13;5008555;28;20039;-72
2024/02/28 01:27:32;;;;;;;83.15;30.83;;;;;;;-1.08;100.00;101727.03;4993500;28;20044;-72
2024/02/28 01:29:57;;;;;;;76.22;27.98;;;;;;;-1.09;100.00;101728.75;5011387;28;20030;-72
2024/02/28 01:32:23;;;;;;;70.90;26.75;;;;;;;-1.09;100.00;101725.34;5016984;28;20041;-72
2024/02/28 01:34:48;;;;;;;83.00;29.23;;;;;;;-1.08;100.00;101722.75;5008210;28;20049;-72
2024/02/28 01:37:14;;;;;;;84.22;29.20;;;;;;;-1.09;100.00;101721.13;5010898;28;20033;-72
2024/02/28 01:39:40;;;;;;;85.55;29.45;;;;;;;-1.09;100.00;101725.34;5013156;28;20037;-72
2024/02/28 01:42:06;;;;;;;85.05;31.70;;;;;;;-1.10;100.00;101714.34;4992768;28;20393;-72
2024/02/28 01:44:38;;;;;;;90.78;31.10;;;;;;;-1.09;100.00;101716.03;5010370;28;20064;-72
2024/02/28 01:47:03;;;;;;;82.18;30.38;;;;;;;-1.07;100.00;101726.97;5009078;28;20049;-72
2024/02/28 01:49:29;;;;;;;86.40;30.02;;;;;;;-1.05;100.00;101707.38;4993789;28;20034;-72
2024/02/28 01:51:56;;;;;;;92.78;32.67;;;;;;;-1.03;100.00;101709.88;5011231;28;20049;-72
2024/02/28 01:54:22;;;;;;;102.18;33.15;;;;;;;-1.01;100.00;101713.19;4991195;28;20563;-72
2024/02/28 01:56:48;;;;;;;90.57;31.08;;;;;;;-1.00;100.00;101705.50;5010370;28;20045;-72
2024/02/28 01:59:14;;;;;;;92.22;32.28;;;;;;;-0.99;100.00;101701.22;5009527;28;20022;-72
2024/02/28 02:01:40;;;;;;;100.80;33.78;;;;;;;-0.98;100.00;101697.78;4989307;28;20560;-72
2024/02/28 02:04:05;;;;;;;101.35;32.95;;;;;;;-0.95;100.00;101710.41;4995291;28;20033;-72
2024/02/28 02:06:32;;;;;;;99.10;32.90;;;;;;;-0.92;100.00;101707.75;4987923;28;20640;-72
2024/02/28 02:08:58;;;;;;;110.18;33.47;;;;;;;-0.92;100.00;101705.19;5012849;28;20532;-72
2024/02/28 02:11:24;;;;;;;104.70;36.78;;;;;;;-0.90;100.00;101703.41;5010114;28;20041;-73
2024/02/28 02:13:53;;;;;;;118.07;37.15;;;;;;;-0.88;100.00;101703.34;5009810;28;20025;-72
2024/02/28 02:16:22;;;;;;;109.88;34.78;;;;;;;-0.85;100.00;101709.16;5002608;28;20121;-72
2024/02/28 02:18:48;;;;;;;116.88;37.15;;;;;;;-0.80;100.00;101701.34;4991495;28;20112;-72
2024/02/28 02:21:17;;;;;;;125.70;38.72;;;;;;;-0.78;100.00;101707.19;4994635;28;20045;-72
2024/02/28 02:23:43;;;;;;;130.57;40.03;;;;;;;-0.77;100.00;101703.75;5009855;28;20038;-72
2024/02/28 02:26:08;;;;;;;111.75;35.88;;;;;;;-0.75;100.00;101706.22;5007814;28;20041;-72
2024/02/28 02:28:34;;;;;;;107.10;34.92;;;;;;;-0.76;100.00;101714.78;5008097;28;20053;-73
2024/02/28 02:30:59;;;;;;;130.55;38.25;;;;;;;-0.78;100.00;101702.09;4991285;28;20034;-72
2024/02/28 02:33:25;;;;;;;121.13;36.13;;;;;;;-0.77;100.00;101703.75;5014288;28;20026;-72
2024/02/28 02:35:52;;;;;;;127.72;39.47;;;;;;;-0.76;100.00;101705.41;5007737;28;20073;-72
2024/02/28 02:38:17;;;;;;;137.85;41.92;;;;;;;-0.72;100.00;101708.66;5007817;28;20064;-72
2024/02/28 02:40:42;;;;;;;137.10;41.95;;;;;;;-0.67;100.00;101719.50;5008002;28;20042;-72
2024/02/28 02:43:09;;;;;;;135.23;41.50;;;;;;;-0.65;100.00;101712.63;5011791;28;20025;-72
2024/02/28 02:45:35;;;;;;;128.63;41.80;;;;;;;-0.64;100.00;101720.22;5009633;28;20107;-72
2024/02/28 02:48:00;;;;;;;128.43;41.10;;;;;;;-0.61;100.00;101722.63;5007353;28;20029;-72
2024/02/28 02:50:26;;;;;;;147.82;44.72;;;;;;;-0.57;100.00;101722.50;4994631;28;20124;-72
2024/02/28 02:52:51;;;;;;;143.85;45.08;;;;;;;-0.52;100.00;101723.16;5007425;28;20029;-72
2024/02/28 02:55:17;;;;;;;136.48;44.22;;;;;;;-0.49;100.00;101726.44;5007829;28;20041;-72
2024/02/28 02:57:42;;;;;;;145.05;46.88;;;;;;;-0.45;100.00;101729.69;5007856;28;20037;-72
2024/02/28 03:00:09;;;;;;;134.43;45.63;;;;;;;-0.45;100.00;101729.69;5014959;28;20026;-72
2024/02/28 03:02:37;;;;;;;196.07;48.88;;;;;;;-0.44;100.00;101733.88;5012254;28;20496;-72
2024/02/28 03:05:03;;;;;;;147.55;44.60;;;;;;;-0.43;100.00;101733.81;4994518;28;20373;-72
2024/02/28 03:07:28;;;;;;;153.82;47.30;;;;;;;-0.41;100.00;101736.31;5007518;28;20037;-72
2024/02/28 03:09:53;;;;;;;125.95;44.47;;;;;;;-0.43;100.00;101727.91;4976948;28;20038;-73
2024/02/28 03:12:19;;;;;;;127.97;43.28;;;;;;;-0.43;100.00;101733.00;4987458;28;20030;-73
2024/02/28 03:14:44;;;;;;;143.50;45.35;;;;;;;-0.42;100.00;101737.19;5006679;28;20033;-73
2024/02/28 03:17:10;;;;;;;145.25;45.60;;;;;;;-0.39;100.00;101742.16;4992598;28;20038;-73
2024/02/28 03:19:36;;;;;;;160.25;50.47;;;;;;;-0.35;100.00;101732.69;4989683;28;20030;-72
2024/02/28 03:22:02;;;;;;;149.18;46.28;;;;;;;-0.29;100.00;101734.97;5007259;28;20042;-72
2024/02/28 03:24:28;;;;;;;166.52;50.25;;;;;;;-0.24;100.00;101736.44;5008447;28;20033;-73
2024/02/28 03:26:53;;;;;;;215.88;51.28;;;;;;;-0.15;100.00;101744.59;5005982;28;20041;-72
2024/02/28 03:29:19;;;;;;;156.25;47.53;;;;;;;-0.14;100.00;101741.16;5005298;28;20037;-73
2024/02/28 03:31:44;;;;;;;153.18;50.72;;;;;;;-0.05;100.00;101743.34;5005015;28;20038;-72
2024/02/28 03:34:10;;;;;;;157.60;49.42;;;;;;;-0.08;100.00;101746.81;5010534;28;20126;-72
2024/02/28 03:36:35;;;;;;;168.65;51.47;;;;;;;-0.06;100.00;101745.06;4992803;28;20046;-73
2024/02/28 03:39:00;;;;;;;172.27;48.72;;;;;;;-0.07;100.00;101751.03;4992035;28;20037;-72
2024/02/28 03:41:26;;;;;;;181.35;51.28;;;;;;;-0.01;100.00;101753.31;5009566;28;20492;-73
2024/02/28 03:43:51;;;;;;;168.27;53.55;;;;;;;0.06;100.00;101760.72;4976773;28;20382;-73
2024/02/28 03:46:17;;;;;;;183.35;54.67;;;;;;;0.07;100.00;101765.75;5022691;28;20038;-73
2024/02/28 03:48:42;;;;;;;189.50;56.88;;;;;;;0.12;100.00;101766.41;5007617;28;20026;-73
2024/02/28 03:51:08;;;;;;;197.70;64.15;;;;;;;0.14;100.00;101767.16;5014240;28;20049;-72
2024/02/28 03:53:33;;;;;;;203.35;65.25;;;;;;;0.14;100.00;101776.53;5011458;28;20100;-72
2024/02/28 03:55:59;;;;;;;191.43;60.85;;;;;;;0.14;100.00;101774.00;4992286;28;20047;-73
2024/02/28 03:58:24;;;;;;;180.73;53.88;;;;;;;0.16;100.00;101769.66;5005502;28;20030;-73
2024/02/28 04:00:50;;;;;;;171.25;51.22;;;;;;;0.17;100.00;101767.03;5003267;28;20497;-73
2024/02/28 04:03:15;;;;;;;181.25;52.55;;;;;;;0.31;100.00;101768.16;5005823;28;20396;-73
2024/02/28 04:05:41;;;;;;;315.10;59.58;;;;;;;0.37;100.00;101770.44;5014315;28;20043;-73
2024/02/28 04:08:06;;;;;;;246.05;64.15;;;;;;;0.41;100.00;101773.69;4996540;28;20535;-73
2024/02/28 04:10:32;;;;;;;260.00;72.30;;;;;;;0.49;100.00;101769.09;5012924;28;20092;-72
2024/02/28 04:12:57;;;;;;;256.92;63.97;;;;;;;0.54;100.00;101765.44;5012381;28;20032;-72
2024/02/28 04:15:25;;;;;;;175.77;55.63;;;;;;;0.49;100.00;101767.38;5009111;28;20088;-73
2024/02/28 04:17:51;;;;;;;250.52;54.63;;;;;;;0.53;100.00;101763.78;5011897;28;20113;-72
2024/02/28 04:20:16;;;;;;;325.08;56.13;;;;;;;0.51;100.00;101764.72;5011420;28;20072;-73
2024/02/28 04:22:42;;;;;;;187.98;53.88;;;;;;;0.51;100.00;101770.69;5011018;28;20029;-73
2024/02/28 04:25:08;;;;;;;254.80;53.95;;;;;;;0.50;100.00;101769.03;4993315;28;20041;-73
2024/02/28 04:27:35;;;;;;;182.55;52.90;;;;;;;0.54;100.00;101769.72;5012077;28;20112;-73
2024/02/28 04:30:00;;;;;;;172.95;50.20;;;;;;;0.57;100.00;101774.69;5009868;28;20038;-72
2024/02/28 04:32:26;;;;;;;199.93;50.15;;;;;;;0.59;100.00;101785.66;5013789;28;20051;-73
2024/02/28 04:34:52;;;;;;;196.05;52.08;;;;;;;0.65;100.00;101776.91;5012283;28;20045;-73
2024/02/28 04:37:17;;;;;;;186.98;50.42;;;;;;;0.61;100.00;101785.59;4995260;28;20093;-72
2024/02/28 04:39:42;;;;;;;162.93;46.20;;;;;;;0.54;100.00;101793.50;4995461;28;20049;-73
2024/02/28 04:42:08;;;;;;;152.98;45.83;;;;;;;0.52;100.00;101787.66;4989706;28;20026;-73
2024/02/28 04:44:33;;;;;;;150.02;46.97;;;;;;;0.49;100.00;101785.25;4995871;28;20532;-73
2024/02/28 04:46:59;;;;;;;196.02;48.35;;;;;;;0.47;100.00;101788.75;5009932;28;20030;-73
2024/02/28 04:49:24;;;;;;;166.65;48.67;;;;;;;0.47;100.00;101786.19;4994422;28;20061;-73
2024/02/28 04:51:50;;;;;;;185.30;48.80;;;;;;;0.50;100.00;101796.28;4991953;28;20038;-73
2024/02/28 04:54:16;;;;;;;245.18;52.70;;;;;;;0.53;100.00;101793.59;4995605;28;20045;-73
2024/02/28 04:56:41;;;;;;;194.43;48.88;;;;;;;0.58;100.00;101796.75;5009498;28;20042;-72
2024/02/28 04:59:15;;;;;;;155.43;47.70;;;;;;;0.50;100.00;101794.53;5014157;28;20030;-73
2024/02/28 05:01:42;;;;;;;181.32;51.97;;;;;;;0.48;100.00;101798.06;5006826;28;23791;-73
2024/02/28 05:04:08;;;;;;;173.15;51.63;;;;;;;0.55;100.00;101804.56;5012067;28;20026;-73
2024/02/28 05:06:35;;;;;;;174.98;50.78;;;;;;;0.48;100.00;101798.88;5006645;28;20046;-73
2024/02/28 05:09:00;;;;;;;185.20;48.00;;;;;;;0.48;100.00;101798.88;5014763;28;20037;-73
2024/02/28 05:11:26;;;;;;;210.82;54.38;;;;;;;0.56;100.00;101796.81;4993704;28;20085;-73
2024/02/28 05:13:51;;;;;;;178.65;51.55;;;;;;;0.58;100.00;101800.16;5007760;28;20480;-73
2024/02/28 05:16:17;;;;;;;200.85;52.95;;;;;;;0.62;100.00;101797.47;5011436;28;20030;-73
2024/02/28 05:18:44;;;;;;;201.23;51.47;;;;;;;0.66;100.00;101796.41;5008943;28;20483;-73
2024/02/28 05:21:10;;;;;;;173.85;50.72;;;;;;;0.61;100.00;101798.38;5014926;28;20042;-73
2024/02/28 05:23:36;;;;;;;182.50;51.22;;;;;;;0.62;100.00;101808.50;4994785;28;20041;-73
2024/02/28 05:26:03;;;;;;;175.13;48.95;;;;;;;0.58;100.00;101812.06;4994387;28;20045;-73
2024/02/28 05:28:33;;;;;;;162.75;48.63;;;;;;;0.61;100.00;101806.03;5008904;28;20116;-73
2024/02/28 05:30:59;;;;;;;188.07;52.67;;;;;;;0.69;100.00;101812.44;5009879;28;20056;-73
2024/02/28 05:33:24;;;;;;;170.85;47.42;;;;;;;0.62;100.00;101821.25;5013888;28;20045;-73
2024/02/28 05:35:50;;;;;;;155.13;46.65;;;;;;;0.62;100.00;101828.91;5013805;28;20488;-73
2024/02/28 05:38:15;;;;;;;165.60;46.83;;;;;;;0.64;100.00;101832.25;4997133;28;20485;-73
2024/02/28 05:40:44;;;;;;;152.02;46.83;;;;;;;0.74;100.00;101835.22;5010612;28;20445;-73
2024/02/28 05:43:09;;;;;;;151.48;45.08;;;;;;;0.73;100.00;101834.38;5009667;28;20025;-73
2024/02/28 05:45:35;;;;;;;140.48;46.58;;;;;;;0.66;100.00;101839.81;5012961;28;20042;-72
2024/02/28 05:48:00;;;;;;;146.20;43.28;;;;;;;0.63;100.00;101839.97;5010825;28;21193;-73
2024/02/28 05:50:26;;;;;;;130.48;43.85;;;;;;;0.67;100.00;101836.38;4994271;28;20508;-73
2024/02/28 05:52:52;;;;;;;140.68;45.53;;;;;;;0.63;100.00;101837.41;5011820;28;20055;-73
2024/02/28 05:55:17;;;;;;;137.65;44.25;;;;;;;0.64;100.00;101841.63;5008432;28;20025;-72
2024/02/28 05:57:43;;;;;;;151.32;46.72;;;;;;;0.66;100.00;101837.28;5013434;28;20128;-73
2024/02/28 06:00:12;;;;;;;172.00;48.30;;;;;;;0.71;100.00;101845.56;4994217;28;20223;-73
2024/02/28 06:02:37;;;;;;;160.57;44.85;;;;;;;0.71;100.00;101845.56;5009181;28;20057;-72
2024/02/28 06:05:03;;;;;;;166.60;47.53;;;;;;;0.69;100.00;101850.72;5015026;28;20029;-73
2024/02/28 06:07:29;;;;;;;169.13;46.10;;;;;;;0.67;100.00;101857.63;4991794;28;20041;-73
2024/02/28 06:09:54;;;;;;;200.50;51.60;;;;;;;0.69;100.00;101860.94;5011943;28;20607;-73
2024/02/28 06:12:20;;;;;;;188.50;47.22;;;;;;;0.75;100.00;101868.38;5007742;28;20536;-73
2024/02/28 06:14:45;;;;;;;198.20;47.88;;;;;;;0.79;100.00;101871.59;5011715;28;20060;-73
2024/02/28 06:17:10;;;;;;;201.00;45.55;;;;;;;0.82;100.00;101861.25;5007131;28;20048;-72
2024/02/28 06:19:36;;;;;;;173.35;42.83;;;;;;;0.83;100.00;101878.25;5013120;28;20396;-73
2024/02/28 06:22:01;;;;;;;186.98;46.88;;;;;;;0.82;100.00;101870.66;5006852;28;20393;-72
2024/02/28 06:24:27;;;;;;;185.55;46.28;;;;;;;0.82;100.00;101871.47;5009893;28;20507;-73
2024/02/28 06:26:52;;;;;;;186.80;43.88;;;;;;;0.80;100.00;101875.81;5019732;28;20039;-73
2024/02/28 06:29:18;;;;;;;200.48;47.63;;;;;;;0.85;100.00;101885.81;5008339;28;20038;-73
2024/02/28 06:31:43;;;;;;;191.38;46.42;;;;;;;0.87;100.00;101884.06;5006368;28;20046;-73
2024/02/28 06:34:08;;;;;;;226.20;51.42;;;;;;;0.96;100.00;101887.03;4995896;28;20013;-72
2024/02/28 06:36:34;;;;;;;218.05;50.45;;;;;;;1.04;100.00;101890.97;5010524;28;20484;-72
2024/02/28 06:38:59;;;;;;;217.35;51.80;;;;;;;0.98;100.00;101897.19;4992048;28;20521;-72
2024/02/28 06:41:25;;;;;;;223.73;51.10;;;;;;;1.02;100.00;101892.75;5010296;28;20404;-72
2024/02/28 06:43:50;;;;;;;221.43;52.15;;;;;;;1.01;100.00;101889.38;5009437;28;20070;-72
2024/02/28 06:46:16;;;;;;;251.07;55.63;;;;;;;1.11;100.00;101893.19;4991135;28;20496;-73
2024/02/28 06:48:42;;;;;;;262.38;70.85;;;;;;;1.06;100.00;101892.56;5008728;28;20052;-72
2024/02/28 06:51:07;;;;;;;262.95;70.70;;;;;;;1.27;100.00;101895.88;5013905;28;20091;-72
2024/02/28 06:53:33;;;;;;;227.85;59.20;;;;;;;1.11;100.00;101902.56;5010639;28;20033;-72
2024/02/28 06:55:58;;;;;;;235.68;60.67;;;;;;;1.12;100.00;101907.59;4997260;28;20034;-72
2024/02/28 06:58:25;;;;;;;216.13;50.03;;;;;;;1.10;100.00;101894.06;4992015;28;20033;-72
2024/02/28 07:00:51;;;;;;;205.82;51.55;;;;;;;1.15;100.00;101904.13;5007099;28;20034;-72
2024/02/28 07:03:16;;;;;;;228.15;53.78;;;;;;;1.12;100.00;101901.69;5005754;28;20037;-72
2024/02/28 07:05:42;;;;;;;208.05;47.53;;;;;;;1.25;100.00;101910.47;5010589;28;20042;-72
2024/02/28 07:08:10;;;;;;;205.18;50.03;;;;;;;1.22;100.00;101904.66;5008996;28;20037;-73
2024/02/28 07:10:36;;;;;;;232.93;51.72;;;;;;;1.22;100.00;101902.91;5005940;28;20105;-73
2024/02/28 07:13:02;;;;;;;259.40;55.72;;;;;;;1.24;100.00;101910.53;4994214;28;20030;-73
2024/02/28 07:15:27;;;;;;;235.18;51.53;;;;;;;1.32;100.00;101918.69;5008862;28;20392;-73
2024/02/28 07:17:53;;;;;;;226.20;50.42;;;;;;;1.33;100.00;101920.34;4994312;28;20025;-73
2024/02/28 07:20:18;;;;;;;239.45;51.90;;;;;;;1.38;100.00;101917.59;5009400;28;20606;-73
2024/02/28 07:22:44;;;;;;;250.57;52.75;;;;;;;1.45;100.00;101917.25;4993128;28;20436;-72
2024/02/28 07:25:10;;;;;;;232.88;48.28;;;;;;;1.50;100.00;101917.00;4990789;28;20022;-72
2024/02/28 07:27:35;;;;;;;242.02;50.78;;;;;;;1.51;100.00;101918.69;5016429;28;20041;-72
2024/02/28 07:30:03;;;;;;;249.18;53.83;;;;;;;1.76;100.00;101915.81;4990261;28;20037;-72
2024/02/28 07:32:28;;;;;;;225.65;51.08;;;;;;;1.66;100.00;101917.97;4994093;28;20030;-72
2024/02/28 07:34:55;;;;;;;244.82;55.92;;;;;;;1.68;100.00;101918.75;4993842;28;20030;-72
2024/02/28 07:37:20;;;;;;;213.43;48.55;;;;;;;1.74;100.00;101923.56;5011174;28;20054;-73
2024/02/28 07:39:47;;;;;;;223.20;52.60;;;;;;;1.74;100.00;101918.44;5025770;28;20034;-72
2024/02/28 07:42:12;;;;;;;228.63;50.13;;;;;;;1.80;100.00;101931.84;5012667;28;20042;-73
2024/02/28 07:44:38;;;;;;;225.05;51.38;;;;;;;1.94;100.00;101922.63;5027469;28;20489;-72
2024/02/28 07:47:06;;;;;;;222.35;52.63;;;;;;;2.10;100.00;101932.13;5007799;28;20041;-73
2024/02/28 07:49:31;;;;;;;200.10;47.92;;;;;;;2.14;100.00;101934.47;5014689;28;20540;-73
2024/02/28 07:51:56;;;;;;;217.35;46.65;;;;;;;2.11;100.00;101933.78;5025631;28;20041;-73
2024/02/28 07:54:22;;;;;;;200.52;47.15;;;;;;;2.08;100.00;101932.22;5010192;28;20044;-72
2024/02/28 07:56:48;;;;;;;190.63;44.55;;;;;;;2.31;100.00;101932.81;4991228;28;20045;-72
2024/02/28 07:59:13;;;;;;;193.48;45.83;;;;;;;2.29;100.00;101930.34;5013716;28;20061;-71
2024/02/28 08:01:39;;;;;;;184.02;46.80;;;;;;;2.42;100.00;101933.13;4992413;28;20057;-72
2024/02/28 08:04:05;;;;;;;189.38;45.60;;;;;;;2.43;100.00;101937.38;5011659;28;20030;-72
2024/02/28 08:06:33;;;;;;;190.75;46.40;;;;;;;2.43;100.00;101932.25;5016516;28;20534;-73
2024/02/28 08:08:58;;;;;;;173.52;45.97;;;;;;;2.48;100.00;101935.38;5010439;28;20149;-72
2024/02/28 08:11:25;;;;;;;168.52;44.03;;;;;;;2.60;100.00;101930.56;5011340;28;20062;-72
2024/02/28 08:13:51;;;;;;;183.55;45.65;;;;;;;2.57;100.00;101923.88;4995590;28;20037;-72
2024/02/28 08:16:16;;;;;;;160.20;42.90;;;;;;;2.54;100.00;101926.56;5013410;28;20033;-72
2024/02/28 08:18:41;;;;;;;166.98;43.70;;;;;;;2.60;100.00;101920.31;5010751;28;20048;-72
2024/02/28 08:21:08;;;;;;;143.77;40.60;;;;;;;2.61;100.00;101935.59;4996993;28;20034;-72
2024/02/28 08:23:34;;;;;;;151.05;42.63;;;;;;;2.64;100.00;101932.91;5006295;28;20081;-72
2024/02/28 08:25:59;;;;;;;139.13;41.20;;;;;;;2.63;100.00;101932.97;5012018;28;20053;-72
2024/02/28 08:28:25;;;;;;;141.20;44.70;;;;;;;2.69;100.00;101936.06;5011358;28;20105;-72
2024/02/28 08:30:50;;;;;;;140.45;40.30;;;;;;;2.71;100.00;101929.13;5011057;28;20042;-72
2024/02/28 08:33:16;;;;;;;143.75;42.40;;;;;;;2.83;100.00;101939.66;5012313;28;20018;-72
2024/02/28 08:35:42;;;;;;;136.57;41.95;;;;;;;2.85;100.00;101938.69;4995007;28;20567;-72
2024/02/28 08:38:08;;;;;;;138.10;42.67;;;;;;;2.89;100.00;101941.91;5009558;28;20032;-72
2024/02/28 08:40:33;;;;;;;130.75;40.38;;;;;;;2.91;100.00;101951.16;5011508;28;20396;-72
2024/02/28 08:42:59;;;;;;;129.77;40.17;;;;;;;2.92;100.00;101952.03;5011377;28;20038;-70
2024/02/28 08:45:24;;;;;;;129.48;39.28;;;;;;;2.94;100.00;101952.75;4995091;28;20022;-72
2024/02/28 08:47:50;;;;;;;129.90;39.40;;;;;;;3.02;100.00;101955.75;5011952;28;20045;-72
2024/02/28 08:50:15;;;;;;;131.05;40.05;;;;;;;2.97;100.00;101959.47;4996066;28;20041;-72
2024/02/28 08:52:41;;;;;;;134.95;39.13;;;;;;;3.02;100.00;101960.06;5013423;28;20033;-70
2024/02/28 08:55:07;;;;;;;123.03;39.88;;;;;;;2.99;100.00;101963.59;5011870;28;20035;-72
2024/02/28 08:57:34;;;;;;;123.13;37.55;;;;;;;3.05;100.00;101955.59;4993524;28;20042;-70
2024/02/28 08:59:59;;;;;;;123.30;38.60;;;;;;;3.04;100.00;101963.38;5006691;28;20033;-72
2024/02/28 09:02:24;;;;;;;130.00;39.95;;;;;;;3.03;100.00;101959.13;4993572;28;20046;-70
2024/02/28 09:04:52;;;;;;;126.35;40.95;;;;;;;3.06;100.00;101961.56;4994101;28;20037;-72
2024/02/28 09:07:19;;;;;;;127.78;39.80;;;;;;;3.09;100.00;101961.41;5009431;28;20079;-72
2024/02/28 09:09:45;;;;;;;129.38;40.95;;;;;;;3.13;100.00;101968.03;5013271;28;20044;-72
2024/02/28 09:12:10;;;;;;;116.38;38.70;;;;;;;3.15;100.00;101971.34;5007746;28;20029;-70
2024/02/28 09:14:36;;;;;;;124.15;38.30;;;;;;;3.20;100.00;101982.19;4997629;28;20496;-70
2024/02/28 09:17:04;;;;;;;127.60;40.08;;;;;;;3.25;100.00;101977.63;5010587;28;20072;-70
2024/02/28 09:19:30;;;;;;;120.70;38.83;;;;;;;3.27;100.00;101986.06;5011361;28;20040;-70
2024/02/28 09:21:56;;;;;;;118.03;37.47;;;;;;;3.30;100.00;101975.66;5008083;28;20046;-70
2024/02/28 09:24:21;;;;;;;115.85;38.20;;;;;;;3.41;100.00;101977.69;5010307;28;20018;-70
2024/02/28 09:26:47;;;;;;;111.82;36.42;;;;;;;3.47;100.00;101976.53;5008395;28;20055;-70
2024/02/28 09:29:12;;;;;;;108.20;36.30;;;;;;;3.43;100.00;101975.03;4997067;28;20041;-70
2024/02/28 09:31:37;;;;;;;118.15;38.00;;;;;;;3.51;100.00;101978.84;5009304;28;20038;-70
2024/02/28 09:34:07;;;;;;;120.45;38.45;;;;;;;3.58;100.00;101970.81;5008961;28;20569;-70
2024/02/28 09:36:34;;;;;;;116.38;37.55;;;;;;;3.66;100.00;101969.50;5010392;28;20037;-70
2024/02/28 09:38:59;;;;;;;116.05;35.28;;;;;;;3.76;100.00;101969.81;5013584;28;20038;-70
2024/02/28 09:41:26;;;;;;;109.25;36.58;;;;;;;3.79;100.00;101968.84;4991430;28;20046;-70
2024/02/28 09:43:52;;;;;;;117.47;38.20;;;;;;;3.89;100.00;101967.41;5013554;28;20365;-70
2024/02/28 09:46:18;;;;;;;123.40;37.85;;;;;;;4.00;100.00;101959.13;5007171;28;20038;-70
2024/02/28 09:48:48;;;;;;;113.25;36.47;;;;;;;4.17;100.00;101951.31;5015677;28;20033;-70
2024/02/28 09:51:16;;;;;;;110.70;34.80;;;;;;;4.28;100.00;101948.16;4995231;28;20488;-70
2024/02/28 09:53:41;;;;;;;101.20;33.70;;;;;;;4.46;100.00;101944.53;5012662;28;20029;-70
2024/02/28 09:56:07;;;;;;;93.97;32.35;;;;;;;4.36;100.00;101935.69;5007298;28;20440;-71
2024/02/28 09:58:34;;;;;;;91.70;30.05;;;;;;;4.53;100.00;101937.28;4975499;28;20137;-70
2024/02/28 10:01:03;;;;;;;91.97;31.35;;;;;;;4.60;100.00;101933.44;4994856;28;20042;-70
2024/02/28 10:03:29;;;;;;;95.82;31.80;;;;;;;4.67;100.00;101932.19;5011937;28;20481;-70
2024/02/28 10:05:55;;;;;;;96.25;34.17;;;;;;;4.78;100.00;101936.69;5010835;28;20038;-70
2024/02/28 10:08:20;;;;;;;93.47;31.80;;;;;;;4.80;100.00;101939.16;5011636;28;20036;-71
2024/02/28 10:10:49;;;;;;;98.82;35.03;;;;;;;4.79;100.00;101938.34;5008189;28;20045;-70
2024/02/28 10:13:18;;;;;;;91.10;31.30;;;;;;;4.78;100.00;101941.81;5007351;28;20109;-70
2024/02/28 10:15:44;;;;;;;92.57;30.77;;;;;;;4.68;100.00;101933.00;5006381;28;20049;-71
2024/02/28 10:18:10;;;;;;;84.63;31.20;;;;;;;4.68;100.00;101938.13;5004893;28;21018;-70
2024/02/28 10:20:35;;;;;;;88.28;31.30;;;;;;;4.78;100.00;101941.81;5010149;28;20031;-70
2024/02/28 10:23:09;;;;;;;95.75;30.58;;;;;;;4.83;100.00;101941.56;4996505;28;20477;-70
2024/02/28 10:25:45;;;;;;;85.55;31.65;;;;;;;4.91;100.00;101936.78;5009371;28;20045;-71
2024/02/28 10:28:11;;;;;;;83.95;29.48;;;;;;;4.94;100.00;101943.50;5008087;28;20034;-71
2024/02/28 10:30:43;;;;;;;87.93;29.75;;;;;;;4.97;100.00;101954.44;5012354;28;20065;-70
2024/02/28 10:33:14;;;;;;;82.93;29.97;;;;;;;5.19;100.00;101951.38;4995941;28;20025;-70
2024/02/28 10:35:40;;;;;;;74.95;29.33;;;;;;;5.23;100.00;101952.84;5010577;28;20129;-70
2024/02/28 10:38:06;;;;;;;84.47;30.52;;;;;;;5.26;100.00;101952.66;5006066;28;21249;-70
2024/02/28 10:40:31;;;;;;;75.95;29.77;;;;;;;5.30;100.00;101961.03;5021986;28;20040;-70
2024/02/28 10:42:58;;;;;;;78.78;29.90;;;;;;;5.33;100.00;101975.44;4990936;28;20496;-70
2024/02/28 10:45:25;;;;;;;95.18;33.95;;;;;;;5.39;100.00;101973.31;5011732;28;20033;-70
2024/02/28 10:47:51;;;;;;;79.93;29.38;;;;;;;5.53;100.00;101966.50;5010805;28;20032;-70
2024/02/28 10:50:17;;;;;;;68.15;25.55;;;;;;;5.63;100.00;101973.56;5010431;28;20041;-71
2024/02/28 10:52:46;;;;;;;84.05;27.75;;;;;;;5.64;100.00;101980.34;4993657;28;20026;-71
2024/02/28 10:55:13;;;;;;;73.28;27.70;;;;;;;5.77;100.00;101971.88;5014466;28;20113;-71